FlightSpace

METAR
EPBY 221200Z 15006KT 100V190 9999 OVC008 M05/M07 Q1017
TAF
TAF EPBY 221130Z 2212/2312 12010KT 7000 BKN006 PROB40 TEMPO 2212/2214 4000 BR BECMG 2213/2216 SCT015
TAF AMD EPBY 220837Z 2208/2306 16010KT 8000 BKN007 BECMG 2209/2211 SCT015
TAF EPBY 220530Z 2206/2306 VRB02KT 7000 OVC013 PROB40 TEMPO 2206/2208 4000 BR OVC005 BECMG 2208/2210 15010KT SCT020
TAF EPBY 212330Z 2200/2224 VRB02KT 6000 OVC013 PROB40 TEMPO 2200/2207 3000 BR OVC005 PROB30 2200/2207 0400 FZFG OVC001 BECMG 2207/2210 15010KT SCT020
TAF AMD EPBY 212034Z 2120/2218 VRB03KT 5000 BR SCT005 BKN020 TEMPO 2120/2207 3000 BR OVC009 PROB40 TEMPO 2121/2207 0100 FZFG BKN001 BECMG 2207/2210 17010KT
TAF EPBY 211730Z 2118/2218 VRB03KT 2000 BR SCT005 BKN030 BECMG 2118/2120 1000 BR TEMPO 2118/2207 0100 FZFG BKN001 BECMG 2207/2210 17010KT 9999

Bydgoszcz Ignacy Jan Paderewski Airport ( EPBY , BZG )


Location
  • Country: PL
  • Region: PL-KP
  • Municipality: Bydgoszcz
  • ARP: 53.0968 17.9777, elev. 235 ft
  • ICAO Address: EPBY
  • IATA Code: BZG
  • GPS Code: EPBY
  • Ident: EPBY
  • Time Zone: Europe/Warsaw
  • Actual Local Time: 13:07:05
Radio communication
TWR 131.000 MHz BYDGOSZCZ TWR
INFO 128.500 MHz INFO
Runways
Direction Width Length Surface
26 60 2500 CON
08 60 2500 CON
Comments



Advertisement